Time;durP1;ratioP1;P1;durP2;ratioP2;P2;SDS_P1;SDS_P2;PMS_P1;PMS_P2;Temp;Humidity;BMP_temperature;BMP_pressure;BME280_temperature;BME280_humidity;BME280_pressure;Samples;Min_cycle;Max_cycle;Signal;HPM_P1;HPM_P2
2023/04/03 00:00:45;;;;;;;;;;;;;;;9.69;88.13;102800.81;5108581;28;19916;-52
2023/04/03 00:03:11;;;;;;;;;;;;;;;9.65;88.90;102802.91;5110520;28;19927;-52
2023/04/03 00:05:36;;;;;;;;;;;;;;;9.55;89.98;102810.91;5109097;28;19916;-49
2023/04/03 00:08:02;;;;;;;;;;;;;;;9.53;90.83;102809.34;5110851;28;19926;-50
2023/04/03 00:10:27;;;;;;;;;;;;;;;9.47;91.13;102816.13;5106234;28;19940;-50
2023/04/03 00:12:53;;;;;;;;;;;;;;;9.40;92.02;102813.16;5109188;28;19916;-48
2023/04/03 00:15:18;;;;;;;;;;;;;;;9.20;92.90;102814.09;5109957;28;19931;-52
2023/04/03 00:17:43;;;;;;;;;;;;;;;9.21;93.05;102813.94;5109279;28;19973;-54
2023/04/03 00:20:09;;;;;;;;;;;;;;;9.32;92.77;102812.97;5110140;28;19916;-52
2023/04/03 00:22:35;;;;;;;;;;;;;;;9.35;92.44;102814.53;5117349;28;19920;-55
2023/04/03 00:25:00;;;;;;;;;;;;;;;9.35;92.53;102817.22;5115600;28;19923;-55
2023/04/03 00:27:25;;;;;;;;;;;;;;;9.39;92.56;102815.94;5115472;28;19962;-54
2023/04/03 00:29:51;;;;;;;;;;;;;;;9.31;92.60;102822.84;5096884;28;19923;-55
2023/04/03 00:32:16;;;;;;;;;;;;;;;9.32;91.56;102824.53;5117556;28;19972;-51
2023/04/03 00:34:42;;;;;;;;;;;;;;;9.29;92.87;102827.47;5118039;28;19991;-53
2023/04/03 00:37:07;;;;;;;;;;;;;;;9.06;94.04;102823.34;5096253;28;19920;-53
2023/04/03 00:39:33;;;;;;;;;;;;;;;9.06;94.70;102831.34;5117912;28;19935;-48
2023/04/03 00:41:58;;;;;;;;;;;;;;;9.08;93.79;102832.06;5100894;28;19931;-50
2023/04/03 00:44:32;;;;;;;;;;;;;;;9.11;94.10;102829.13;5119508;28;19975;-51
2023/04/03 00:46:58;;;;;;;;;;;;;;;8.84;94.68;102833.25;5120807;28;19973;-51
2023/04/03 00:49:24;;;;;;;;;;;;;;;8.89;94.99;102836.34;5104476;28;19916;-48
2023/04/03 00:51:50;;;;;;;;;;;;;;;8.91;95.65;102833.56;5119960;28;19946;-51
2023/04/03 00:54:17;;;;;;;;;;;;;;;8.99;95.22;102839.88;5105246;28;19916;-50
2023/04/03 00:56:43;;;;;;;;;;;;;;;9.01;94.82;102832.63;5122738;28;19968;-52
2023/04/03 00:59:12;;;;;;;;;;;;;;;8.96;94.75;102836.66;5123121;28;19916;-52
2023/04/03 01:01:39;;;;;;;;;;;;;;;8.92;94.90;102841.41;5124446;28;19920;-51
2023/04/03 01:04:05;;;;;;;;;;;;;;;8.86;94.82;102847.28;5098240;28;19931;-53
2023/04/03 01:06:33;;;;;;;;;;;;;;;8.85;95.36;102846.44;5102919;28;19924;-51
2023/04/03 01:09:05;;;;;;;;;;;;;;;8.67;96.69;102842.72;5103742;28;19919;-53
2023/04/03 01:11:31;;;;;;;;;;;;;;;8.79;96.23;102854.16;5105728;28;19917;-52
2023/04/03 01:13:56;;;;;;;;;;;;;;;8.69;96.95;102854.94;5120672;28;19927;-50
2023/04/03 01:16:23;;;;;;;;;;;;;;;8.70;97.91;102853.13;5102585;28;19908;-53
2023/04/03 01:18:49;;;;;;;;;;;;;;;8.65;98.91;102845.53;5102262;28;20280;-51
2023/04/03 01:21:27;;;;;;;;;;;;;;;8.56;100.00;102841.00;5118355;28;19959;-53
2023/04/03 01:23:58;;;;;;;;;;;;;;;8.59;100.00;102846.06;5102060;28;19947;-53
2023/04/03 01:26:25;;;;;;;;;;;;;;;8.74;100.00;102843.88;5100646;28;19916;-53
2023/04/03 01:28:53;;;;;;;;;;;;;;;8.63;100.00;102842.16;5130203;28;20268;-53
2023/04/03 01:31:24;;;;;;;;;;;;;;;8.65;100.00;102842.84;5097867;28;19927;-54
2023/04/03 01:33:51;;;;;;;;;;;;;;;8.68;100.00;102839.91;5130386;27;19973;-55
2023/04/03 01:36:20;;;;;;;;;;;;;;;8.78;100.00;102849.81;5119625;28;19916;-51
2023/04/03 01:38:46;;;;;;;;;;;;;;;8.94;99.98;102849.28;5132927;28;19920;-51
2023/04/03 01:41:12;;;;;;;;;;;;;;;8.43;100.00;102846.50;5122156;28;19931;-53
2023/04/03 01:43:39;;;;;;;;;;;;;;;8.51;100.00;102852.06;5139601;27;19920;-51
2023/04/03 01:46:04;;;;;;;;;;;;;;;8.42;100.00;102837.66;5137664;27;19923;-51
2023/04/03 01:48:30;;;;;;;;;;;;;;;8.37;100.00;102839.88;5096283;28;19923;-53
2023/04/03 01:50:56;;;;;;;;;;;;;;;8.39;100.00;102834.38;5117140;28;19924;-53
2023/04/03 01:53:21;;;;;;;;;;;;;;;8.37;100.00;102831.00;5098480;28;19951;-51
2023/04/03 01:55:48;;;;;;;;;;;;;;;8.43;100.00;102838.50;5098184;28;19983;-55
2023/04/03 01:58:13;;;;;;;;;;;;;;;8.43;100.00;102842.00;5097917;28;19943;-54
2023/04/03 02:00:39;;;;;;;;;;;;;;;8.28;100.00;102852.16;5116224;28;19924;-51
2023/04/03 02:03:04;;;;;;;;;;;;;;;8.19;100.00;102844.97;5115849;28;19984;-50
2023/04/03 02:05:30;;;;;;;;;;;;;;;8.14;100.00;102848.00;5120128;28;19916;-53
2023/04/03 02:07:56;;;;;;;;;;;;;;;8.06;100.00;102847.78;5135073;27;19915;-50
2023/04/03 02:10:21;;;;;;;;;;;;;;;8.18;100.00;102857.44;5121715;28;19916;-51
2023/04/03 02:12:47;;;;;;;;;;;;;;;8.14;100.00;102853.34;5119570;28;19916;-51
2023/04/03 02:15:12;;;;;;;;;;;;;;;8.14;100.00;102858.66;5123718;28;19943;-52
2023/04/03 02:17:38;;;;;;;;;;;;;;;8.16;100.00;102861.19;5121938;28;19916;-48
2023/04/03 02:20:03;;;;;;;;;;;;;;;8.07;100.00;102868.13;5120248;28;19920;-51
2023/04/03 02:22:29;;;;;;;;;;;;;;;8.00;100.00;102865.16;5139745;27;19929;-51
2023/04/03 02:24:55;;;;;;;;;;;;;;;8.02;100.00;102865.00;5120050;28;19923;-50
2023/04/03 02:27:20;;;;;;;;;;;;;;;7.98;100.00;102871.59;5122052;28;19919;-52
2023/04/03 02:29:47;;;;;;;;;;;;;;;8.03;100.00;102872.91;5103422;28;19916;-49
2023/04/03 02:32:12;;;;;;;;;;;;;;;8.01;100.00;102866.00;5121984;28;19916;-53
2023/04/03 02:34:38;;;;;;;;;;;;;;;8.06;100.00;102870.94;5104619;28;19916;-52
2023/04/03 02:37:04;;;;;;;;;;;;;;;7.86;100.00;102878.78;5104647;28;19930;-50
2023/04/03 02:39:30;;;;;;;;;;;;;;;8.12;100.00;102879.28;5120117;28;19971;-52
2023/04/03 02:41:57;;;;;;;;;;;;;;;8.23;100.00;102870.38;5101862;28;19924;-51
2023/04/03 02:44:24;;;;;;;;;;;;;;;8.27;100.00;102869.13;5101532;28;19939;-51
2023/04/03 02:46:51;;;;;;;;;;;;;;;8.46;100.00;102875.56;5088051;28;19922;-55
2023/04/03 02:49:17;;;;;;;;;;;;;;;8.27;100.00;102868.28;5117172;28;19920;-50
2023/04/03 02:51:42;;;;;;;;;;;;;;;8.26;100.00;102871.91;5100709;28;19930;-51
2023/04/03 02:54:08;;;;;;;;;;;;;;;8.11;100.00;102872.25;5098427;28;19916;-52
2023/04/03 02:56:37;;;;;;;;;;;;;;;8.37;100.00;102869.19;5131950;27;19994;-53
2023/04/03 02:59:02;;;;;;;;;;;;;;;7.97;100.00;102880.56;5119963;28;19915;-52
2023/04/03 03:01:31;;;;;;;;;;;;;;;7.71;100.00;102881.72;5101224;28;19938;-51
2023/04/03 03:03:57;;;;;;;;;;;;;;;7.87;100.00;102886.66;5133432;27;19920;-52
2023/04/03 03:06:22;;;;;;;;;;;;;;;7.88;100.00;102887.47;5116672;28;19920;-54
2023/04/03 03:08:48;;;;;;;;;;;;;;;7.55;100.00;102884.78;5118890;28;19974;-53
2023/04/03 03:11:13;;;;;;;;;;;;;;;7.79;100.00;102890.91;5115605;28;19916;-51
2023/04/03 03:13:39;;;;;;;;;;;;;;;8.00;100.00;102893.63;5122719;28;19988;-47
2023/04/03 03:16:05;;;;;;;;;;;;;;;7.89;100.00;102887.38;5122365;28;19916;-50
2023/04/03 03:18:30;;;;;;;;;;;;;;;7.93;100.00;102887.09;5118300;28;19923;-52
2023/04/03 03:20:57;;;;;;;;;;;;;;;7.87;100.00;102894.66;5103044;28;19975;-49
2023/04/03 03:23:24;;;;;;;;;;;;;;;7.85;100.00;102899.25;5121993;28;19927;-51
2023/04/03 03:25:54;;;;;;;;;;;;;;;7.91;100.00;102894.38;5099551;28;19992;-49
2023/04/03 03:28:19;;;;;;;;;;;;;;;7.78;100.00;102894.56;5139460;27;20059;-49
2023/04/03 03:30:44;;;;;;;;;;;;;;;7.81;100.00;102896.97;5102005;28;19932;-56
2023/04/03 03:33:10;;;;;;;;;;;;;;;7.75;100.00;102895.63;5138007;27;19983;-49
2023/04/03 03:35:36;;;;;;;;;;;;;;;7.74;100.00;102899.28;5138137;27;19984;-50
2023/04/03 03:38:02;;;;;;;;;;;;;;;7.72;100.00;102901.22;5119984;28;19920;-51
2023/04/03 03:40:27;;;;;;;;;;;;;;;7.45;100.00;102899.84;5101884;28;20762;-54
2023/04/03 03:42:53;;;;;;;;;;;;;;;7.37;100.00;102904.91;5135661;27;19912;-53
2023/04/03 03:45:19;;;;;;;;;;;;;;;7.38;100.00;102906.59;5132698;27;19916;-50
2023/04/03 03:47:45;;;;;;;;;;;;;;;7.23;100.00;102909.53;5102951;28;19916;-54
2023/04/03 03:50:10;;;;;;;;;;;;;;;7.20;100.00;102907.13;5136154;27;19928;-52
2023/04/03 03:52:38;;;;;;;;;;;;;;;7.27;100.00;102905.66;5103218;28;19926;-51
2023/04/03 03:55:04;;;;;;;;;;;;;;;7.32;100.00;102911.47;5117892;28;19950;-50
2023/04/03 03:57:31;;;;;;;;;;;;;;;7.46;100.00;102912.19;5103402;28;19916;-50
2023/04/03 03:59:57;;;;;;;;;;;;;;;7.26;100.00;102911.97;5103196;28;19920;-50
2023/04/03 04:02:23;;;;;;;;;;;;;;;7.27;100.00;102915.47;5099493;28;19928;-51
2023/04/03 04:04:51;;;;;;;;;;;;;;;7.35;100.00;102917.50;5131416;28;19916;-49
2023/04/03 04:07:16;;;;;;;;;;;;;;;7.43;100.00;102912.44;5082342;28;19916;-53
2023/04/03 04:09:42;;;;;;;;;;;;;;;7.38;100.00;102909.28;5116426;28;19926;-47
2023/04/03 04:12:08;;;;;;;;;;;;;;;7.34;100.00;102913.16;5102091;28;19912;-51
2023/04/03 04:14:35;;;;;;;;;;;;;;;7.33;100.00;102914.97;5130378;28;19984;-52
2023/04/03 04:17:02;;;;;;;;;;;;;;;7.35;100.00;102914.84;5105192;28;19916;-52
2023/04/03 04:19:28;;;;;;;;;;;;;;;7.35;100.00;102914.84;5131291;28;20271;-53
2023/04/03 04:21:53;;;;;;;;;;;;;;;7.18;100.00;102919.72;5102429;28;19920;-50
2023/04/03 04:24:19;;;;;;;;;;;;;;;7.21;100.00;102921.28;5102777;28;19966;-51
2023/04/03 04:26:46;;;;;;;;;;;;;;;7.07;100.00;102917.91;5104207;28;19924;-50
2023/04/03 04:29:13;;;;;;;;;;;;;;;7.16;100.00;102921.66;5140723;28;19919;-51
2023/04/03 04:31:39;;;;;;;;;;;;;;;7.11;100.00;102919.34;5101854;28;20377;-51
2023/04/03 04:34:05;;;;;;;;;;;;;;;7.18;100.00;102925.88;5103316;28;19938;-48
2023/04/03 04:36:31;;;;;;;;;;;;;;;7.14;100.00;102926.22;5101810;28;19923;-49
2023/04/03 04:38:58;;;;;;;;;;;;;;;7.10;100.00;102922.97;5103354;28;19931;-53
2023/04/03 04:41:26;;;;;;;;;;;;;;;7.05;100.00;102924.31;5117498;28;19924;-52
2023/04/03 04:43:52;;;;;;;;;;;;;;;7.02;100.00;102926.22;5136673;28;20007;-52
2023/04/03 04:46:18;;;;;;;;;;;;;;;6.97;100.00;102925.75;5097547;28;19916;-52
2023/04/03 04:48:48;;;;;;;;;;;;;;;6.89;100.00;102928.16;5100389;28;19934;-48
2023/04/03 04:51:17;;;;;;;;;;;;;;;6.98;100.00;102930.09;5102247;28;19924;-50
2023/04/03 04:53:43;;;;;;;;;;;;;;;7.00;100.00;102932.63;5105821;28;19923;-50
2023/04/03 04:56:12;;;;;;;;;;;;;;;6.89;100.00;102938.78;5135105;28;19979;-49
2023/04/03 04:58:39;;;;;;;;;;;;;;;6.92;100.00;102935.91;5102096;28;19919;-52
2023/04/03 05:01:06;;;;;;;;;;;;;;;6.92;100.00;102935.91;5102695;28;19946;-51
2023/04/03 05:03:34;;;;;;;;;;;;;;;6.85;100.00;102942.66;5136896;28;19924;-51
2023/04/03 05:06:00;;;;;;;;;;;;;;;6.80;100.00;102936.84;5138912;28;20340;-48
2023/04/03 05:08:26;;;;;;;;;;;;;;;6.79;100.00;102940.47;5104998;28;19915;-47
2023/04/03 05:10:53;;;;;;;;;;;;;;;6.81;100.00;102943.88;5119299;28;19927;-50
2023/04/03 05:13:18;;;;;;;;;;;;;;;6.83;100.00;102945.44;5142379;27;19916;-46
2023/04/03 05:15:44;;;;;;;;;;;;;;;6.80;100.00;102950.16;5138536;27;19923;-53
2023/04/03 05:18:09;;;;;;;;;;;;;;;6.93;100.00;102945.59;5122787;28;19938;-51
2023/04/03 05:20:36;;;;;;;;;;;;;;;6.85;100.00;102946.19;5118492;28;20821;-52
2023/04/03 05:23:02;;;;;;;;;;;;;;;6.71;100.00;102949.91;5108749;28;19934;-46
2023/04/03 05:25:28;;;;;;;;;;;;;;;6.79;100.00;102953.78;5097200;28;19959;-50
2023/04/03 05:27:55;;;;;;;;;;;;;;;6.83;100.00;102957.88;5117203;28;19923;-53
2023/04/03 05:30:21;;;;;;;;;;;;;;;6.80;100.00;102958.13;5122808;28;19966;-49
2023/04/03 05:32:47;;;;;;;;;;;;;;;6.79;100.00;102956.44;5103043;28;19950;-51
2023/04/03 05:35:40;;;;;;;;;;;;;;;6.70;100.00;102964.16;5119965;28;19923;-48
2023/04/03 05:38:06;;;;;;;;;;;;;;;6.70;100.00;102958.84;5100615;28;19915;-52
2023/04/03 05:40:32;;;;;;;;;;;;;;;6.73;100.00;102968.38;5103867;28;19915;-48
2023/04/03 05:42:58;;;;;;;;;;;;;;;6.76;100.00;102975.28;5116216;28;19959;-51
2023/04/03 05:45:25;;;;;;;;;;;;;;;6.81;100.00;102975.78;5140147;27;19919;-50
2023/04/03 05:47:51;;;;;;;;;;;;;;;6.70;100.00;102980.13;5094196;28;19959;-49
2023/04/03 05:50:16;;;;;;;;;;;;;;;6.72;100.00;102975.53;5120946;28;19927;-51
2023/04/03 05:52:44;;;;;;;;;;;;;;;6.82;100.00;102977.47;5119041;28;19920;-49
2023/04/03 05:55:09;;;;;;;;;;;;;;;6.91;100.00;102981.25;5104131;28;20003;-49
2023/04/03 05:57:35;;;;;;;;;;;;;;;6.83;100.00;102980.03;5128718;27;19916;-51
2023/04/03 06:00:05;;;;;;;;;;;;;;;6.90;100.00;102980.38;5105480;28;19966;-51
2023/04/03 06:02:39;;;;;;;;;;;;;;;6.93;100.00;102980.16;5117276;28;19915;-51
2023/04/03 06:05:06;;;;;;;;;;;;;;;6.90;100.00;102985.69;5132616;27;19916;-50
2023/04/03 06:07:34;;;;;;;;;;;;;;;7.01;100.00;102988.41;5101217;28;19916;-49
2023/04/03 06:09:59;;;;;;;;;;;;;;;6.88;100.00;102995.63;5118130;28;19922;-53
2023/04/03 06:12:26;;;;;;;;;;;;;;;7.06;100.00;102988.06;5095957;28;20341;-50
2023/04/03 06:14:52;;;;;;;;;;;;;;;6.88;100.00;102993.81;5103640;28;19930;-52
2023/04/03 06:17:18;;;;;;;;;;;;;;;7.00;100.00;102993.81;5120167;28;19923;-48
2023/04/03 06:19:44;;;;;;;;;;;;;;;7.60;100.00;102993.63;5099470;28;19916;-49
2023/04/03 06:22:11;;;;;;;;;;;;;;;7.82;100.00;102998.03;5102866;28;19926;-49
2023/04/03 06:24:36;;;;;;;;;;;;;;;7.91;100.00;103003.63;5136053;27;19942;-51
2023/04/03 06:27:02;;;;;;;;;;;;;;;7.63;100.00;103009.34;5097069;28;19920;-54
2023/04/03 06:29:27;;;;;;;;;;;;;;;7.43;100.00;103001.13;5120177;28;19947;-52
2023/04/03 06:31:53;;;;;;;;;;;;;;;7.35;100.00;102998.22;5119283;28;19916;-50
2023/04/03 06:34:18;;;;;;;;;;;;;;;7.25;100.00;103006.09;5121490;28;19939;-52
2023/04/03 06:36:44;;;;;;;;;;;;;;;7.40;100.00;103003.19;5117854;28;19935;-53
2023/04/03 06:39:14;;;;;;;;;;;;;;;7.36;100.00;103015.03;5120131;28;19916;-51
2023/04/03 06:41:40;;;;;;;;;;;;;;;7.63;100.00;103011.19;5119428;28;19916;-53
2023/04/03 06:44:06;;;;;;;;;;;;;;;7.60;100.00;103009.59;5118961;28;19916;-53
2023/04/03 06:46:31;;;;;;;;;;;;;;;7.49;100.00;103007.78;5114362;28;19955;-51
2023/04/03 06:48:56;;;;;;;;;;;;;;;7.50;100.00;103014.81;5115921;28;19935;-49
2023/04/03 06:51:23;;;;;;;;;;;;;;;7.69;100.00;103013.34;5119621;28;20045;-52
2023/04/03 06:53:49;;;;;;;;;;;;;;;8.06;100.00;103026.34;5116949;28;19916;-47
2023/04/03 06:56:14;;;;;;;;;;;;;;;8.23;100.00;103026.78;5116746;28;19916;-53
2023/04/03 06:58:40;;;;;;;;;;;;;;;7.93;100.00;103023.81;5118309;28;19916;-55
2023/04/03 07:01:05;;;;;;;;;;;;;;;7.90;100.00;103026.75;5117143;28;19926;-49
2023/04/03 07:03:31;;;;;;;;;;;;;;;7.91;100.00;103043.59;5119901;28;19920;-49
2023/04/03 07:05:56;;;;;;;;;;;;;;;7.95;100.00;103040.53;5116559;28;19924;-52
2023/04/03 07:08:23;;;;;;;;;;;;;;;7.93;100.00;103037.16;5118120;28;19928;-49
2023/04/03 07:10:50;;;;;;;;;;;;;;;8.06;100.00;103041.50;5121456;28;19976;-52
2023/04/03 07:13:15;;;;;;;;;;;;;;;8.03;100.00;103038.13;5119952;28;19916;-52
2023/04/03 07:15:41;;;;;;;;;;;;;;;8.18;100.00;103041.34;5118231;28;19922;-49
2023/04/03 07:18:06;;;;;;;;;;;;;;;8.02;100.00;103047.09;5120619;28;19916;-52
2023/04/03 07:20:32;;;;;;;;;;;;;;;8.39;100.00;103059.22;5117442;28;19980;-55
2023/04/03 07:22:57;;;;;;;;;;;;;;;8.38;100.00;103054.88;5120553;28;20028;-54
2023/04/03 07:25:22;;;;;;;;;;;;;;;8.16;100.00;103055.75;5115495;28;19916;-53
2023/04/03 07:27:49;;;;;;;;;;;;;;;8.30;100.00;103055.50;5117698;28;19919;-48
2023/04/03 07:30:15;;;;;;;;;;;;;;;8.34;100.00;103050.75;5109166;28;19942;-52
2023/04/03 07:32:40;;;;;;;;;;;;;;;8.51;100.00;103056.53;5117776;28;19919;-53
2023/04/03 07:35:06;;;;;;;;;;;;;;;8.50;100.00;103060.19;5115659;28;19969;-51
2023/04/03 07:37:32;;;;;;;;;;;;;;;8.62;100.00;103061.84;5117112;28;19916;-54
2023/04/03 07:39:58;;;;;;;;;;;;;;;8.71;100.00;103063.72;5125013;28;19938;-50
2023/04/03 07:42:27;;;;;;;;;;;;;;;8.77;100.00;103065.03;5120117;28;19955;-49
2023/04/03 07:44:53;;;;;;;;;;;;;;;8.87;100.00;103055.28;5120102;28;19958;-50
2023/04/03 07:47:20;;;;;;;;;;;;;;;8.83;100.00;103063.69;5117795;28;19916;-50
2023/04/03 07:49:45;;;;;;;;;;;;;;;9.06;100.00;103064.41;5115498;28;19937;-55
2023/04/03 07:52:11;;;;;;;;;;;;;;;9.02;100.00;103063.84;5115741;28;19916;-53
2023/04/03 07:54:37;;;;;;;;;;;;;;;9.30;100.00;103065.94;5117850;28;19916;-52
2023/04/03 07:57:02;;;;;;;;;;;;;;;9.24;100.00;103063.81;5116398;28;19920;-52
2023/04/03 07:59:28;;;;;;;;;;;;;;;9.20;99.10;103065.06;5114685;28;19916;-47
2023/04/03 08:01:53;;;;;;;;;;;;;;;9.17;99.03;103074.16;5117349;28;19928;-51
2023/04/03 08:04:19;;;;;;;;;;;;;;;9.18;98.31;103065.19;5121088;28;19965;-48
2023/04/03 08:06:44;;;;;;;;;;;;;;;9.43;98.57;103068.41;5121087;28;19927;-53
2023/04/03 08:09:10;;;;;;;;;;;;;;;9.39;98.83;103072.31;5111060;28;19923;-51
2023/04/03 08:11:38;;;;;;;;;;;;;;;9.06;95.95;103088.41;5115716;28;20377;-51
2023/04/03 08:14:03;;;;;;;;;;;;;;;9.28;95.30;103082.13;5114661;28;19972;-49
2023/04/03 08:16:28;;;;;;;;;;;;;;;9.39;92.16;103083.88;5121287;28;19928;-49
2023/04/03 08:18:54;;;;;;;;;;;;;;;9.49;88.86;103078.56;5119874;28;19915;-49
2023/04/03 08:21:20;;;;;;;;;;;;;;;9.56;91.18;103077.06;5119833;28;19923;-50
2023/04/03 08:23:47;;;;;;;;;;;;;;;9.52;91.72;103082.78;5117821;28;19921;-54
2023/04/03 08:26:14;;;;;;;;;;;;;;;9.74;92.30;103082.59;5115202;28;19916;-52
2023/04/03 08:28:40;;;;;;;;;;;;;;;9.88;91.06;103077.88;5120807;28;19961;-51
2023/04/03 08:31:06;;;;;;;;;;;;;;;9.80;88.86;103085.72;5120046;28;19916;-49
2023/04/03 08:33:33;;;;;;;;;;;;;;;10.07;88.05;103087.78;5116506;28;19923;-55
2023/04/03 08:35:58;;;;;;;;;;;;;;;9.97;83.62;103085.06;5121574;28;19916;-53
2023/04/03 08:38:24;;;;;;;;;;;;;;;10.00;82.52;103094.66;5115487;28;19941;-50
2023/04/03 08:41:10;;;;;;;;;;;;;;;10.16;81.47;103094.13;5116283;28;20362;-49
2023/04/03 08:43:48;;;;;;;;;;;;;;;10.07;81.72;103098.47;5076323;28;19920;-52
2023/04/03 08:46:15;;;;;;;;;;;;;;;10.05;78.09;103103.13;5124068;28;19927;-54
2023/04/03 08:48:41;;;;;;;;;;;;;;;10.01;74.53;103107.88;5120639;28;19926;-53
2023/04/03 08:51:18;;;;;;;;;;;;;;;10.45;74.07;103099.56;5119140;28;19927;-51
2023/04/03 08:53:55;;;;;;;;;;;;;;;10.75;75.48;103116.50;5123032;28;19930;-52
2023/04/03 08:56:22;;;;;;;;;;;;;;;10.82;71.33;103107.88;5109823;28;19919;-53
2023/04/03 08:59:05;;;;;;;;;;;;;;;11.11;68.98;103113.22;5123424;28;19912;-52
2023/04/03 09:01:35;;;;;;;;;;;;;;;11.23;68.82;103115.75;5119090;28;19938;-52
2023/04/03 09:04:01;;;;;;;;;;;;;;;11.80;67.85;103118.41;5119406;28;19988;-49
2023/04/03 09:06:30;;;;;;;;;;;;;;;11.95;61.97;103109.84;5117829;28;19931;-49
2023/04/03 09:09:10;;;;;;;;;;;;;;;12.25;60.16;103107.91;5117558;28;19923;-52
2023/04/03 09:11:55;;;;;;;;;;;;;;;12.59;57.60;103113.47;5116176;28;19915;-49
2023/04/03 09:14:32;;;;;;;;;;;;;;;13.34;58.64;103112.19;5113709;28;19916;-49
2023/04/03 09:17:00;;;;;;;;;;;;;;;14.29;55.49;103114.97;5118364;28;19979;-53
2023/04/03 09:19:31;;;;;;;;;;;;;;;14.18;51.98;103116.13;5115622;28;19946;-55
2023/04/03 09:21:58;;;;;;;;;;;;;;;14.71;48.60;103115.94;5115661;28;19926;-53
2023/04/03 09:24:24;;;;;;;;;;;;;;;15.58;45.59;103125.28;5117087;28;20371;-55
2023/04/03 09:26:50;;;;;;;;;;;;;;;15.98;45.10;103119.94;5122373;28;19980;-53
2023/04/03 09:29:20;;;;;;;;;;;;;;;16.31;41.77;103127.84;5122429;28;19916;-54
2023/04/03 09:31:47;;;;;;;;;;;;;;;16.38;43.08;103117.19;5119049;28;19923;-52
2023/04/03 09:34:21;;;;;;;;;;;;;;;17.05;42.25;103108.41;5115308;28;19920;-51
2023/04/03 09:36:53;;;;;;;;;;;;;;;18.10;40.88;103104.84;5121830;28;19923;-55
2023/04/03 09:39:20;;;;;;;;;;;;;;;17.91;38.58;103120.63;5111341;28;19967;-52
2023/04/03 09:41:57;;;;;;;;;;;;;;;17.91;35.70;103126.03;5114397;28;19916;-52
2023/04/03 09:44:25;;;;;;;;;;;;;;;18.11;35.96;103111.94;5118437;28;19923;-54
2023/04/03 09:46:50;;;;;;;;;;;;;;;18.43;36.80;103111.66;5119898;28;19988;-55
2023/04/03 09:49:17;;;;;;;;;;;;;;;19.03;33.66;103117.66;5121462;28;19916;-54
2023/04/03 09:51:43;;;;;;;;;;;;;;;18.96;33.93;103111.31;5120256;28;19935;-54
2023/04/03 09:54:39;;;;;;;;;;;;;;;19.04;33.29;103105.75;5118973;28;19916;-53
2023/04/03 09:57:27;;;;;;;;;;;;;;;20.00;31.84;103111.53;5105663;28;19941;-55
2023/04/03 10:00:01;;;;;;;;;;;;;;;19.66;32.15;103105.09;5118513;28;19916;-51
2023/04/03 10:02:35;;;;;;;;;;;;;;;19.80;33.53;103105.16;5114612;28;19920;-50
2023/04/03 10:05:01;;;;;;;;;;;;;;;20.45;30.03;103100.13;5114130;28;19923;-51
2023/04/03 10:07:26;;;;;;;;;;;;;;;20.85;29.46;103090.34;5118582;28;19916;-54
2023/04/03 10:09:56;;;;;;;;;;;;;;;20.63;30.29;103088.63;5118729;28;19927;-54
2023/04/03 10:12:22;;;;;;;;;;;;;;;20.85;30.58;103101.22;5121057;28;19930;-54
2023/04/03 10:15:00;;;;;;;;;;;;;;;20.78;31.85;103090.31;5115366;28;19943;-55
2023/04/03 10:17:34;;;;;;;;;;;;;;;20.57;29.69;103096.81;5112941;28;19916;-55
2023/04/03 10:20:09;;;;;;;;;;;;;;;20.26;29.64;103092.78;5108643;28;19917;-53
2023/04/03 10:22:49;;;;;;;;;;;;;;;20.78;28.99;103091.16;5113704;28;19924;-52
2023/04/03 10:25:19;;;;;;;;;;;;;;;20.47;30.61;103078.19;5114219;28;19924;-56
2023/04/03 10:27:57;;;;;;;;;;;;;;;20.76;28.38;103089.69;5115583;28;19930;-54
2023/04/03 10:30:28;;;;;;;;;;;;;;;21.76;30.77;103076.97;5121320;28;19927;-50
2023/04/03 10:32:54;;;;;;;;;;;;;;;22.18;27.65;103076.50;5114149;28;19916;-54
2023/04/03 10:35:25;;;;;;;;;;;;;;;21.69;29.06;103076.16;5116586;28;19923;-52
2023/04/03 10:37:50;;;;;;;;;;;;;;;21.77;28.68;103075.91;5111616;28;19948;-52
2023/04/03 10:40:31;;;;;;;;;;;;;;;22.07;27.74;103069.88;5117413;28;19916;-52
2023/04/03 10:43:06;;;;;;;;;;;;;;;21.47;27.83;103055.47;5112778;28;19921;-52
2023/04/03 10:45:35;;;;;;;;;;;;;;;21.95;25.69;103047.13;5112721;28;19920;-51
2023/04/03 10:48:21;;;;;;;;;;;;;;;22.32;26.36;103045.41;5111443;28;19938;-55
2023/04/03 10:51:07;;;;;;;;;;;;;;;22.08;25.50;103047.03;5115700;28;19920;-54
2023/04/03 10:53:35;;;;;;;;;;;;;;;22.87;24.81;103043.06;5094570;28;20013;-54
2023/04/03 10:56:27;;;;;;;;;;;;;;;23.20;26.77;103033.69;5111061;28;19939;-55
2023/04/03 10:59:05;;;;;;;;;;;;;;;22.86;25.82;103035.94;5083363;28;19937;-53
2023/04/03 11:01:34;;;;;;;;;;;;;;;23.20;25.72;103033.69;5108919;28;19919;-54
2023/04/03 11:04:00;;;;;;;;;;;;;;;23.92;27.74;103024.78;5112496;28;19920;-57
2023/04/03 11:06:36;;;;;;;;;;;;;;;23.83;26.06;103031.66;5112174;28;19941;-55
2023/04/03 11:09:06;;;;;;;;;;;;;;;24.00;26.75;103009.13;5109205;28;19917;-56
2023/04/03 11:11:37;;;;;;;;;;;;;;;24.84;26.43;103023.72;5112247;28;19947;-57
2023/04/03 11:14:05;;;;;;;;;;;;;;;25.18;25.24;103035.69;5107873;28;19920;-55
2023/04/03 11:16:34;;;;;;;;;;;;;;;24.71;24.37;103038.47;5112302;28;19945;-56
2023/04/03 11:19:02;;;;;;;;;;;;;;;25.23;23.21;103043.19;5115003;28;19924;-53
2023/04/03 11:21:38;;;;;;;;;;;;;;;25.87;24.47;103046.91;5110827;28;19958;-56
2023/04/03 11:24:08;;;;;;;;;;;;;;;26.22;23.77;103028.63;5108281;28;20135;-55
2023/04/03 11:26:37;;;;;;;;;;;;;;;25.51;25.07;103030.63;5114027;28;20085;-56
2023/04/03 11:29:06;;;;;;;;;;;;;;;24.92;23.34;103037.06;5108896;28;19924;-54
2023/04/03 11:31:47;;;;;;;;;;;;;;;25.66;24.41;103032.00;5114940;28;19916;-55
2023/04/03 11:34:31;;;;;;;;;;;;;;;26.52;23.71;103025.53;5109373;28;19920;-54
2023/04/03 11:37:00;;;;;;;;;;;;;;;26.89;22.00;103016.75;5114713;28;19924;-53
2023/04/03 11:39:37;;;;;;;;;;;;;;;27.00;22.77;103020.47;5113350;28;19920;-56
2023/04/03 11:42:17;;;;;;;;;;;;;;;27.19;22.58;103028.38;5110188;28;19942;-53
2023/04/03 11:44:42;;;;;;;;;;;;;;;26.51;22.75;103023.03;5114167;28;19923;-55
2023/04/03 11:47:10;;;;;;;;;;;;;;;26.72;23.96;103011.25;5112464;28;19924;-56
2023/04/03 11:49:50;;;;;;;;;;;;;;;26.62;23.27;103020.19;5112851;28;19923;-55
2023/04/03 11:52:35;;;;;;;;;;;;;;;27.23;22.72;103023.19;5112594;28;19950;-53
2023/04/03 11:55:00;;;;;;;;;;;;;;;27.65;22.41;103017.09;5110481;28;19941;-56
2023/04/03 11:57:57;;;;;;;;;;;;;;;28.06;22.20;103024.91;5114463;28;19915;-56
2023/04/03 12:00:42;;;;;;;;;;;;;;;28.16;22.38;103019.53;5071347;28;19927;-53
2023/04/03 12:03:28;;;;;;;;;;;;;;;28.10;22.18;103008.72;5117335;28;19920;-54
2023/04/03 12:06:06;;;;;;;;;;;;;;;27.47;22.63;103010.03;5106122;28;19916;-54
2023/04/03 12:08:41;;;;;;;;;;;;;;;27.32;21.58;103014.25;5116893;28;19926;-51
2023/04/03 12:11:12;;;;;;;;;;;;;;;27.73;22.29;103007.56;5114833;28;19939;-54
2023/04/03 12:13:57;;;;;;;;;;;;;;;27.82;21.26;103000.50;5118315;28;19916;-57
2023/04/03 12:16:26;;;;;;;;;;;;;;;27.81;22.26;103006.28;5122442;28;19916;-55
2023/04/03 12:18:52;;;;;;;;;;;;;;;28.25;23.31;102989.56;5121246;28;19915;-52
2023/04/03 12:21:22;;;;;;;;;;;;;;;28.17;21.60;102999.19;5116013;28;19923;-56
2023/04/03 12:24:01;;;;;;;;;;;;;;;29.21;20.84;102994.22;5113701;28;19946;-52
2023/04/03 12:26:30;;;;;;;;;;;;;;;28.48;21.62;102977.34;5119743;28;19923;-55
2023/04/03 12:28:57;;;;;;;;;;;;;;;28.34;21.09;102976.16;5117394;28;19942;-54
2023/04/03 12:31:23;;;;;;;;;;;;;;;28.06;21.98;102969.91;5117641;28;20405;-57
2023/04/03 12:34:08;;;;;;;;;;;;;;;28.02;23.17;102982.53;5114513;28;19920;-57
2023/04/03 12:36:42;;;;;;;;;;;;;;;28.60;22.07;102968.06;5115895;28;19935;-56
2023/04/03 12:39:15;;;;;;;;;;;;;;;27.96;21.89;102967.06;5118244;28;19916;-53
2023/04/03 12:41:50;;;;;;;;;;;;;;;28.55;21.26;102981.78;5120920;28;19959;-54
2023/04/03 12:44:22;;;;;;;;;;;;;;;29.32;21.65;102973.88;5116875;28;19924;-55